Time;durP1;ratioP1;P1;durP2;ratioP2;P2;SDS_P1;SDS_P2;PMS_P1;PMS_P2;Temp;Humidity;BMP_temperature;BMP_pressure;BME280_temperature;BME280_humidity;BME280_pressure;Samples;Min_cycle;Max_cycle;Signal;HPM_P1;HPM_P2
2024/03/13 00:00:13;;;;;;;26.92;18.48;;;9.00;99.90;;;;;;4991903;28;20033;-85
2024/03/13 00:02:42;;;;;;;30.50;20.50;;;9.00;99.90;;;;;;5006754;28;20049;-84
2024/03/13 00:05:09;;;;;;;27.65;17.60;;;9.00;99.90;;;;;;4975662;28;20052;-84
2024/03/13 00:07:37;;;;;;;26.20;17.65;;;9.00;99.90;;;;;;4993230;28;20067;-89
2024/03/13 00:10:08;;;;;;;25.98;17.63;;;9.00;99.90;;;;;;4993940;28;20036;-85
2024/03/13 00:12:35;;;;;;;26.70;18.52;;;9.00;99.90;;;;;;4995844;28;20032;-84
2024/03/13 00:15:05;;;;;;;28.42;18.55;;;8.90;99.90;;;;;;4976881;28;20040;-89
2024/03/13 00:17:32;;;;;;;27.48;17.30;;;8.90;99.90;;;;;;4990853;28;20420;-89
2024/03/13 00:19:59;;;;;;;25.17;17.70;;;8.90;99.90;;;;;;5008397;28;20464;-89
2024/03/13 00:22:26;;;;;;;24.15;16.65;;;8.90;99.90;;;;;;4968886;28;20076;-89
2024/03/13 00:24:58;;;;;;;27.38;18.35;;;8.90;99.90;;;;;;5000738;28;20386;-86
2024/03/13 00:27:25;;;;;;;28.90;19.83;;;8.90;99.90;;;;;;4981058;28;20037;-85
2024/03/13 00:29:52;;;;;;;33.33;20.85;;;8.90;99.90;;;;;;4980641;28;20635;-86
2024/03/13 00:32:23;;;;;;;30.73;20.13;;;8.90;99.90;;;;;;4984063;28;20030;-88
2024/03/13 00:34:50;;;;;;;27.77;18.75;;;8.90;99.90;;;;;;4981431;28;20048;-87
2024/03/13 00:37:17;;;;;;;26.85;18.60;;;8.90;99.90;;;;;;4995487;28;20033;-88
2024/03/13 00:39:43;;;;;;;30.50;19.88;;;9.00;99.90;;;;;;4960302;28;20426;-87
2024/03/13 00:42:11;;;;;;;25.50;18.23;;;8.90;99.90;;;;;;4958482;28;20033;-89
2024/03/13 00:44:42;;;;;;;26.50;17.40;;;9.00;99.90;;;;;;4995775;28;20025;-87
2024/03/13 00:47:11;;;;;;;23.67;15.38;;;9.00;99.90;;;;;;4991270;28;20369;-88
2024/03/13 00:49:38;;;;;;;20.52;14.18;;;9.00;99.90;;;;;;4990239;28;20025;-87
2024/03/13 00:52:04;;;;;;;25.27;16.02;;;9.00;99.90;;;;;;4976451;28;20028;-87
2024/03/13 00:54:32;;;;;;;24.55;16.48;;;9.00;99.90;;;;;;4993017;28;20041;-87
2024/03/13 00:57:00;;;;;;;27.52;19.35;;;9.00;99.90;;;;;;4976035;28;20609;-88
2024/03/13 00:59:29;;;;;;;23.83;16.85;;;9.00;99.90;;;;;;4962086;28;20332;-88
2024/03/13 01:01:56;;;;;;;24.13;17.02;;;9.00;99.90;;;;;;4959437;28;20496;-88
2024/03/13 01:04:24;;;;;;;27.88;18.25;;;9.00;99.90;;;;;;4993155;28;20042;-85
2024/03/13 01:06:51;;;;;;;26.83;17.70;;;9.00;99.90;;;;;;4995561;28;20452;-87
2024/03/13 01:09:23;;;;;;;21.70;15.75;;;9.00;99.90;;;;;;4980810;28;20029;-89
2024/03/13 01:11:53;;;;;;;21.60;15.48;;;9.00;99.90;;;;;;4983739;28;20048;-89
2024/03/13 01:14:20;;;;;;;21.13;15.27;;;9.00;99.90;;;;;;5012759;28;20037;-88
2024/03/13 01:16:53;;;;;;;26.42;18.60;;;9.10;99.90;;;;;;5009546;28;20502;-87
2024/03/13 01:19:20;;;;;;;22.40;15.32;;;9.00;99.90;;;;;;4990355;28;20479;-88
2024/03/13 01:21:51;;;;;;;23.20;17.23;;;9.00;99.90;;;;;;4999021;28;20048;-90
2024/03/13 01:24:19;;;;;;;22.35;15.38;;;9.00;99.90;;;;;;5018254;28;20049;-87
2024/03/13 01:26:45;;;;;;;21.35;15.90;;;9.00;99.90;;;;;;5002113;28;20048;-89
2024/03/13 01:29:12;;;;;;;23.60;16.23;;;9.10;99.90;;;;;;5000101;28;20029;-87
2024/03/13 01:31:40;;;;;;;22.17;15.30;;;9.10;99.90;;;;;;5028755;28;20052;-89
2024/03/13 01:34:09;;;;;;;20.67;14.70;;;9.10;99.90;;;;;;5000571;28;20026;-86
2024/03/13 01:39:24;;;;;;;21.05;14.23;;;9.10;99.90;;;;;;5014291;28;20037;-87
2024/03/13 01:55:44;;;;;;;19.90;14.00;;;9.20;99.90;;;;;;5030007;28;20046;-88
2024/03/13 01:58:19;;;;;;;20.55;14.35;;;9.20;99.90;;;;;;4994090;28;20057;-87
2024/03/13 02:03:48;;;;;;;20.60;14.32;;;9.20;99.90;;;;;;4978805;28;20050;-85
2024/03/13 02:06:14;;;;;;;19.67;13.75;;;9.20;99.90;;;;;;5010555;28;20052;-86
2024/03/13 02:08:41;;;;;;;17.15;12.48;;;9.20;99.90;;;;;;5000709;28;20041;-86
2024/03/13 02:11:07;;;;;;;19.63;12.88;;;9.20;99.90;;;;;;4999846;28;20040;-87
2024/03/13 02:13:39;;;;;;;21.95;14.95;;;9.10;99.90;;;;;;4981374;28;20029;-85
2024/03/13 02:16:06;;;;;;;21.48;15.10;;;9.20;99.90;;;;;;5015201;28;20037;-87
2024/03/13 02:18:32;;;;;;;22.75;15.75;;;9.20;99.90;;;;;;5015394;28;20033;-87
2024/03/13 02:20:59;;;;;;;21.10;15.27;;;9.20;99.90;;;;;;5001290;28;20038;-88
2024/03/13 02:23:30;;;;;;;20.58;13.43;;;9.20;99.90;;;;;;4996971;28;20037;-87
2024/03/13 02:25:57;;;;;;;20.25;13.75;;;9.20;99.90;;;;;;4998580;28;20029;-86
2024/03/13 02:28:34;;;;;;;21.48;14.88;;;9.20;99.90;;;;;;4984962;28;20028;-86
2024/03/13 02:31:01;;;;;;;20.80;13.73;;;9.20;99.90;;;;;;5033476;28;20371;-86
2024/03/13 02:33:28;;;;;;;26.05;15.43;;;9.20;99.90;;;;;;4998366;28;20515;-88
2024/03/13 02:35:55;;;;;;;21.88;14.48;;;9.20;99.90;;;;;;5016119;28;20021;-87
2024/03/13 02:38:21;;;;;;;20.33;13.32;;;9.30;99.90;;;;;;5020576;28;20029;-85
2024/03/13 02:40:48;;;;;;;21.33;13.80;;;9.30;99.90;;;;;;5017726;28;20028;-87
2024/03/13 02:43:14;;;;;;;21.33;14.63;;;9.30;99.90;;;;;;4981504;28;20509;-87
2024/03/13 02:45:42;;;;;;;22.60;15.20;;;9.30;99.90;;;;;;5001029;28;20040;-88
2024/03/13 02:48:09;;;;;;;22.63;14.25;;;9.30;99.90;;;;;;5001214;28;20444;-87
2024/03/13 02:50:36;;;;;;;25.42;16.13;;;9.30;99.90;;;;;;5003081;28;20045;-87
2024/03/13 02:53:02;;;;;;;21.73;14.65;;;9.30;99.90;;;;;;4985622;28;20041;-86
2024/03/13 02:55:29;;;;;;;23.92;14.80;;;9.30;99.90;;;;;;5001627;28;20050;-85
2024/03/13 02:57:57;;;;;;;23.45;14.68;;;9.30;99.90;;;;;;5016219;28;20039;-89
2024/03/13 03:00:25;;;;;;;22.63;13.52;;;9.30;99.90;;;;;;5002176;28;20033;-87
2024/03/13 03:02:54;;;;;;;24.00;14.70;;;9.30;99.90;;;;;;5011920;28;20493;-88
2024/03/13 03:05:21;;;;;;;27.65;15.00;;;9.30;99.90;;;;;;4996455;28;20041;-88
2024/03/13 03:07:47;;;;;;;24.23;14.57;;;9.30;99.90;;;;;;5001020;28;20362;-88
2024/03/13 03:10:14;;;;;;;21.92;14.65;;;9.40;99.90;;;;;;5017463;28;20511;-89
2024/03/13 03:12:42;;;;;;;24.00;15.68;;;9.30;99.90;;;;;;4997337;28;20046;-86
2024/03/13 03:15:10;;;;;;;23.10;13.88;;;9.40;99.90;;;;;;4997380;28;20041;-84
2024/03/13 03:17:37;;;;;;;23.70;14.10;;;9.40;99.90;;;;;;4995152;28;20560;-88
2024/03/13 03:20:04;;;;;;;26.40;16.08;;;9.40;99.90;;;;;;5015432;28;20044;-91
2024/03/13 03:22:30;;;;;;;24.75;15.45;;;9.40;99.90;;;;;;5002425;28;21466;-90
2024/03/13 03:24:57;;;;;;;23.15;14.10;;;9.40;99.90;;;;;;5016897;28;20041;-89
2024/03/13 03:27:24;;;;;;;24.48;14.10;;;9.40;99.90;;;;;;5019101;28;20047;-88
2024/03/13 03:29:52;;;;;;;22.38;13.65;;;9.40;99.90;;;;;;5015087;28;20041;-90
2024/03/13 03:32:21;;;;;;;22.33;13.23;;;9.40;99.90;;;;;;4982129;28;20029;-90
2024/03/13 03:34:48;;;;;;;24.77;13.25;;;9.40;99.90;;;;;;5015952;28;20056;-89
2024/03/13 03:37:15;;;;;;;23.70;14.05;;;9.40;99.90;;;;;;4980711;28;20045;-87
2024/03/13 03:39:42;;;;;;;28.38;13.25;;;9.40;99.90;;;;;;5012425;28;20484;-88
2024/03/13 03:42:08;;;;;;;19.73;12.25;;;9.40;99.90;;;;;;5009398;28;20045;-84
2024/03/13 03:44:37;;;;;;;21.65;11.65;;;9.40;99.90;;;;;;4996622;28;20731;-89
2024/03/13 03:47:03;;;;;;;23.00;12.70;;;9.40;99.90;;;;;;4996062;28;20471;-90
2024/03/13 03:49:30;;;;;;;23.88;12.88;;;9.40;99.90;;;;;;5022221;28;20037;-86
2024/03/13 03:51:56;;;;;;;20.33;12.00;;;9.40;99.90;;;;;;4999448;28;20052;-91
2024/03/13 03:54:22;;;;;;;26.70;13.73;;;9.50;99.90;;;;;;4982017;28;20051;-87
2024/03/13 03:56:50;;;;;;;21.45;13.18;;;9.50;99.90;;;;;;5011814;28;20049;-88
2024/03/13 03:59:17;;;;;;;24.38;13.00;;;9.50;99.90;;;;;;5015147;28;20040;-90
2024/03/13 04:01:44;;;;;;;24.08;14.07;;;9.50;99.90;;;;;;4997943;28;20041;-88
2024/03/13 04:04:13;;;;;;;21.92;12.88;;;9.50;99.90;;;;;;5014890;28;20033;-88
2024/03/13 04:06:41;;;;;;;27.95;14.13;;;9.50;99.90;;;;;;4998127;28;20041;-87
2024/03/13 04:09:16;;;;;;;22.70;12.77;;;9.50;99.90;;;;;;4981348;28;20041;-86
2024/03/13 04:11:43;;;;;;;26.00;13.15;;;9.50;99.90;;;;;;4990279;28;20048;-88
2024/03/13 04:14:12;;;;;;;22.90;11.98;;;9.50;99.90;;;;;;5009575;28;20391;-87
2024/03/13 04:16:43;;;;;;;25.25;13.48;;;9.50;99.90;;;;;;4983925;28;20043;-88
2024/03/13 04:19:10;;;;;;;22.92;13.45;;;9.60;99.90;;;;;;5013817;28;20613;-90
2024/03/13 04:21:38;;;;;;;23.95;12.88;;;9.60;99.90;;;;;;4994541;28;20037;-87
2024/03/13 04:24:07;;;;;;;23.48;13.32;;;9.60;99.90;;;;;;5010204;28;20042;-89
2024/03/13 04:26:39;;;;;;;22.70;12.38;;;9.60;99.90;;;;;;5019022;28;20477;-89
2024/03/13 04:29:06;;;;;;;26.70;13.73;;;9.60;99.90;;;;;;5026146;28;23292;-87
2024/03/13 04:31:33;;;;;;;26.13;14.10;;;9.60;99.90;;;;;;5011625;28;20041;-87
2024/03/13 04:34:00;;;;;;;24.42;13.13;;;9.70;99.90;;;;;;4995604;28;20717;-85
2024/03/13 04:36:26;;;;;;;23.55;13.25;;;9.70;99.90;;;;;;4979381;28;20036;-88
2024/03/13 04:38:53;;;;;;;25.38;13.73;;;9.80;99.90;;;;;;4979043;28;20050;-87
2024/03/13 04:41:20;;;;;;;22.58;13.13;;;9.80;99.90;;;;;;4994631;28;20030;-88
2024/03/13 04:43:46;;;;;;;22.88;12.40;;;9.80;99.90;;;;;;4981259;28;20587;-86
2024/03/13 04:46:19;;;;;;;21.33;11.55;;;9.80;99.90;;;;;;5011251;28;20041;-85
2024/03/13 04:48:46;;;;;;;20.05;11.75;;;9.80;99.90;;;;;;5028210;28;20499;-88
2024/03/13 04:51:14;;;;;;;24.33;12.80;;;9.80;99.90;;;;;;4991297;28;20400;-91
2024/03/13 04:53:43;;;;;;;22.23;13.23;;;9.80;99.90;;;;;;4997022;28;20033;-87
2024/03/13 04:56:28;;;;;;;18.27;11.10;;;9.80;99.90;;;;;;5012790;28;20393;-85
2024/03/13 04:58:54;;;;;;;21.63;12.20;;;9.80;99.90;;;;;;4994953;28;20045;-89
2024/03/13 05:01:20;;;;;;;18.23;10.32;;;9.80;99.90;;;;;;4999448;28;20041;-89
2024/03/13 05:03:47;;;;;;;19.80;11.38;;;9.80;99.90;;;;;;4997462;28;20477;-89
2024/03/13 05:06:13;;;;;;;20.40;11.02;;;9.80;99.90;;;;;;5017225;28;20484;-86
2024/03/13 05:08:40;;;;;;;22.45;12.30;;;9.80;99.90;;;;;;5015518;28;20099;-90
2024/03/13 05:11:09;;;;;;;24.65;13.50;;;9.80;99.90;;;;;;4998851;28;20053;-89
2024/03/13 05:13:36;;;;;;;26.70;14.65;;;9.80;99.90;;;;;;5001410;28;20046;-86
2024/03/13 05:16:03;;;;;;;22.27;13.00;;;9.80;99.90;;;;;;4984839;28;20053;-89
2024/03/13 05:18:30;;;;;;;24.90;13.38;;;9.90;99.90;;;;;;4985394;28;20392;-90
2024/03/13 05:20:56;;;;;;;24.90;13.73;;;9.90;99.90;;;;;;4986205;28;20038;-87
2024/03/13 05:23:23;;;;;;;21.13;11.80;;;9.90;99.90;;;;;;5019741;28;20479;-89
2024/03/13 05:25:52;;;;;;;24.80;12.85;;;9.90;99.90;;;;;;5003130;28;20038;-88
2024/03/13 05:28:21;;;;;;;23.27;12.68;;;9.90;99.90;;;;;;4999138;28;20519;-88
2024/03/13 05:30:48;;;;;;;27.63;14.48;;;9.90;99.90;;;;;;5013078;28;20351;-90
2024/03/13 05:33:14;;;;;;;23.45;12.55;;;9.90;99.90;;;;;;5051116;28;20032;-88
2024/03/13 05:35:41;;;;;;;24.30;13.50;;;10.00;99.90;;;;;;4986870;28;21113;-89
2024/03/13 05:38:07;;;;;;;22.85;12.30;;;10.00;99.90;;;;;;4982355;28;20060;-90
2024/03/13 05:40:34;;;;;;;30.50;15.73;;;10.00;99.90;;;;;;4985829;28;20399;-89
2024/03/13 05:43:00;;;;;;;31.38;16.50;;;10.00;99.90;;;;;;4987376;28;20029;-86
2024/03/13 05:45:27;;;;;;;28.80;15.40;;;10.10;99.90;;;;;;5017814;28;20040;-90
2024/03/13 05:47:53;;;;;;;36.20;16.95;;;10.10;99.90;;;;;;5002079;28;20407;-89
2024/03/13 05:50:20;;;;;;;33.03;15.75;;;10.10;99.90;;;;;;5004232;28;20052;-88
2024/03/13 05:52:47;;;;;;;31.95;16.05;;;10.10;99.90;;;;;;4987926;28;20405;-88
2024/03/13 05:55:16;;;;;;;32.00;16.25;;;10.10;99.90;;;;;;5015417;28;20052;-92
2024/03/13 05:57:43;;;;;;;36.58;17.65;;;10.10;99.90;;;;;;5000826;28;20041;-86
2024/03/13 06:00:13;;;;;;;33.92;15.95;;;10.20;99.90;;;;;;5002764;28;20064;-87
2024/03/13 06:02:43;;;;;;;28.25;13.07;;;10.20;99.90;;;;;;5001609;28;20045;-91
2024/03/13 06:05:14;;;;;;;30.23;14.82;;;10.20;99.90;;;;;;4998029;28;20040;-89
2024/03/13 06:07:41;;;;;;;25.75;12.88;;;10.20;99.90;;;;;;5006390;28;20033;-92
2024/03/13 06:10:11;;;;;;;26.38;12.60;;;10.20;99.90;;;;;;5035831;28;20041;-90
2024/03/13 06:12:38;;;;;;;24.88;12.30;;;10.30;99.90;;;;;;5025506;28;20703;-86
2024/03/13 06:15:07;;;;;;;26.40;13.45;;;10.30;99.90;;;;;;4998118;28;20484;-86
2024/03/13 06:17:34;;;;;;;28.95;13.07;;;10.30;99.90;;;;;;5014496;28;20040;-86
2024/03/13 06:20:03;;;;;;;23.05;11.63;;;10.30;99.90;;;;;;5015166;28;20042;-90
2024/03/13 06:22:30;;;;;;;23.90;12.20;;;10.30;99.90;;;;;;5048141;28;20034;-91
2024/03/13 06:25:00;;;;;;;17.80;9.80;;;10.40;99.90;;;;;;5000125;28;20048;-93
2024/03/13 06:27:29;;;;;;;22.33;10.98;;;10.40;99.90;;;;;;4981545;28;20133;-87
2024/03/13 06:29:57;;;;;;;22.00;10.65;;;10.40;99.90;;;;;;4998463;28;20036;-93
2024/03/13 06:32:29;;;;;;;22.33;10.88;;;10.40;99.90;;;;;;5028370;28;20056;-89
2024/03/13 06:35:00;;;;;;;18.75;9.27;;;10.40;99.90;;;;;;5000501;28;20048;-90
2024/03/13 06:37:28;;;;;;;17.98;9.20;;;10.40;99.90;;;;;;4998669;28;20037;-89
2024/03/13 06:39:56;;;;;;;18.40;8.43;;;10.40;99.90;;;;;;4997796;28;20045;-89
2024/03/13 06:42:26;;;;;;;19.15;8.90;;;10.50;99.90;;;;;;5012892;28;20480;-88
2024/03/13 06:44:53;;;;;;;16.25;8.27;;;10.50;99.90;;;;;;5016090;28;20045;-90
2024/03/13 06:47:20;;;;;;;18.90;9.15;;;10.50;99.90;;;;;;4981696;28;20037;-91
2024/03/13 06:49:47;;;;;;;13.70;7.55;;;10.50;99.90;;;;;;4984813;28;20511;-87
2024/03/13 06:52:13;;;;;;;12.88;6.50;;;10.50;99.90;;;;;;5012577;28;20029;-86
2024/03/13 06:54:40;;;;;;;15.77;7.80;;;10.60;99.90;;;;;;4995588;28;20811;-85
2024/03/13 06:57:09;;;;;;;15.15;7.82;;;10.60;99.90;;;;;;4989435;28;20515;-91
2024/03/13 06:59:46;;;;;;;12.10;6.55;;;10.60;99.90;;;;;;4998238;28;20060;-85
2024/03/13 07:02:17;;;;;;;10.95;6.20;;;10.60;99.90;;;;;;4995515;28;20044;-88
2024/03/13 07:04:43;;;;;;;11.88;6.22;;;10.60;99.90;;;;;;5016446;28;20366;-91
2024/03/13 07:07:10;;;;;;;14.73;7.40;;;10.60;99.90;;;;;;4981654;28;20394;-89
2024/03/13 07:09:37;;;;;;;11.57;7.18;;;10.60;99.90;;;;;;5003372;28;20041;-92
2024/03/13 07:12:04;;;;;;;11.73;7.10;;;10.70;99.90;;;;;;5000952;28;20526;-90
2024/03/13 07:14:31;;;;;;;13.93;7.38;;;10.70;99.90;;;;;;5007461;28;20041;-95
2024/03/13 07:16:57;;;;;;;13.73;7.35;;;10.70;99.90;;;;;;5001827;28;20204;-86
2024/03/13 07:19:23;;;;;;;11.73;6.97;;;10.70;99.90;;;;;;5003878;28;20048;-86
2024/03/13 07:21:50;;;;;;;14.13;8.35;;;10.60;99.90;;;;;;4999471;28;20041;-89
2024/03/13 07:24:17;;;;;;;19.52;10.07;;;10.70;99.90;;;;;;5002864;28;20060;-90
2024/03/13 07:26:43;;;;;;;13.43;8.82;;;10.70;99.90;;;;;;5017611;28;20036;-91
2024/03/13 07:29:10;;;;;;;14.95;9.43;;;10.70;99.90;;;;;;4999165;28;20067;-86
2024/03/13 07:31:39;;;;;;;13.25;8.48;;;10.70;99.90;;;;;;5014872;28;20038;-90
2024/03/13 07:34:07;;;;;;;20.58;12.30;;;10.70;99.90;;;;;;5026414;28;20033;-90
2024/03/13 07:36:35;;;;;;;15.88;9.40;;;10.70;99.90;;;;;;4999616;28;20044;-92
2024/03/13 07:39:03;;;;;;;15.00;9.73;;;10.80;99.90;;;;;;4996695;28;20034;-92
2024/03/13 07:41:31;;;;;;;20.67;13.38;;;10.70;99.90;;;;;;4997598;28;20044;-91
2024/03/13 07:43:58;;;;;;;18.95;11.20;;;10.80;99.90;;;;;;4995321;28;20046;-87
2024/03/13 07:46:25;;;;;;;20.52;12.77;;;10.80;99.90;;;;;;5004291;28;20041;-89
2024/03/13 07:48:51;;;;;;;21.02;12.70;;;10.80;99.90;;;;;;5000444;28;20720;-87
2024/03/13 07:51:18;;;;;;;17.90;12.18;;;10.80;99.90;;;;;;5016498;28;20056;-88
2024/03/13 07:53:44;;;;;;;17.92;12.35;;;10.80;99.90;;;;;;5013597;28;20037;-91
2024/03/13 07:56:10;;;;;;;20.73;12.75;;;10.80;99.90;;;;;;5011583;28;20030;-87
2024/03/13 07:58:37;;;;;;;18.10;11.25;;;10.80;99.90;;;;;;5016723;28;20044;-87
2024/03/13 08:01:05;;;;;;;18.75;10.98;;;10.90;99.90;;;;;;5031251;28;20033;-89
2024/03/13 08:03:35;;;;;;;19.73;11.77;;;11.00;99.90;;;;;;5010885;28;20037;-85
2024/03/13 08:06:01;;;;;;;17.65;11.13;;;11.00;99.90;;;;;;4978390;28;20033;-91
2024/03/13 08:08:27;;;;;;;18.20;11.93;;;11.10;99.90;;;;;;5012269;28;20161;-86
2024/03/13 08:10:54;;;;;;;17.67;11.38;;;11.10;99.90;;;;;;5009397;28;20958;-89
2024/03/13 08:13:20;;;;;;;19.80;11.52;;;11.10;99.90;;;;;;4996575;28;20041;-85
2024/03/13 08:15:47;;;;;;;20.30;12.40;;;11.20;99.90;;;;;;4994134;28;20442;-89
2024/03/13 08:18:19;;;;;;;19.42;11.98;;;11.20;99.90;;;;;;4979333;28;20037;-89
2024/03/13 08:20:48;;;;;;;21.33;13.38;;;11.30;99.90;;;;;;4995976;28;20405;-86
2024/03/13 08:23:15;;;;;;;21.23;12.15;;;11.30;99.90;;;;;;5011964;28;20037;-87
2024/03/13 08:25:41;;;;;;;26.70;15.00;;;11.30;99.90;;;;;;4993408;28;20061;-90
2024/03/13 08:28:10;;;;;;;21.63;12.73;;;11.30;99.90;;;;;;4993346;28;20040;-92
2024/03/13 08:30:37;;;;;;;21.15;13.40;;;11.30;99.90;;;;;;4980296;28;20052;-87
2024/03/13 08:33:03;;;;;;;22.95;15.13;;;11.30;99.90;;;;;;5042766;28;20038;-90
2024/03/13 08:35:30;;;;;;;19.60;13.35;;;11.40;99.90;;;;;;4995834;28;20045;-90
2024/03/13 08:37:59;;;;;;;24.65;14.70;;;11.40;99.90;;;;;;4994413;28;20037;-91
2024/03/13 08:40:28;;;;;;;25.20;15.98;;;11.50;99.90;;;;;;4995347;28;20036;-90
2024/03/13 08:42:58;;;;;;;24.80;15.18;;;11.50;99.90;;;;;;4997070;28;20029;-87
2024/03/13 08:45:28;;;;;;;30.88;17.90;;;11.50;99.90;;;;;;5007239;28;20041;-88
2024/03/13 08:47:55;;;;;;;21.85;15.13;;;11.50;99.90;;;;;;4995151;28;20026;-88
2024/03/13 08:50:22;;;;;;;23.35;14.73;;;11.50;99.90;;;;;;4996234;28;20034;-89
2024/03/13 08:52:48;;;;;;;23.70;14.50;;;11.50;99.90;;;;;;5011322;28;20050;-90
2024/03/13 08:55:17;;;;;;;25.63;15.70;;;11.50;99.90;;;;;;5027623;28;20046;-87
2024/03/13 08:57:45;;;;;;;20.27;14.38;;;11.50;99.90;;;;;;5014798;28;20064;-90
2024/03/13 09:00:11;;;;;;;31.60;17.63;;;11.50;99.90;;;;;;4980904;28;20037;-89
2024/03/13 09:02:38;;;;;;;21.80;14.38;;;11.50;99.90;;;;;;5015308;28;20038;-88
2024/03/13 09:05:05;;;;;;;22.70;13.88;;;11.50;99.90;;;;;;5028585;28;20036;-86
2024/03/13 09:07:32;;;;;;;20.83;14.02;;;11.50;99.90;;;;;;4988917;28;20041;-91
2024/03/13 09:09:58;;;;;;;24.27;14.07;;;11.60;99.90;;;;;;4997537;28;20088;-90
2024/03/13 09:12:25;;;;;;;20.13;12.35;;;11.60;99.90;;;;;;4998804;28;20488;-91
2024/03/13 09:14:51;;;;;;;19.90;11.65;;;11.60;99.90;;;;;;5028396;28;20202;-87
2024/03/13 09:17:17;;;;;;;21.48;14.20;;;11.60;99.90;;;;;;4987570;28;20064;-91
2024/03/13 09:19:48;;;;;;;19.08;11.13;;;11.60;99.90;;;;;;5004831;28;20044;-88
2024/03/13 09:22:17;;;;;;;20.48;12.65;;;11.60;99.90;;;;;;5001273;28;21376;-87
2024/03/13 09:24:44;;;;;;;18.85;11.63;;;11.70;99.90;;;;;;4999663;28;20052;-92
2024/03/13 09:27:10;;;;;;;16.35;11.38;;;11.70;99.90;;;;;;5003331;28;20064;-90
2024/03/13 09:29:36;;;;;;;16.23;10.73;;;11.70;99.90;;;;;;5005366;28;20418;-86
2024/03/13 09:32:03;;;;;;;16.13;10.65;;;11.70;99.90;;;;;;4999457;28;20036;-91
2024/03/13 09:34:29;;;;;;;15.68;10.05;;;11.80;99.90;;;;;;5014275;28;20028;-86
2024/03/13 09:36:59;;;;;;;16.33;9.98;;;11.80;99.90;;;;;;5000464;28;20504;-88
2024/03/13 09:39:25;;;;;;;14.48;8.57;;;11.80;99.90;;;;;;5020252;28;20044;-90
2024/03/13 09:41:57;;;;;;;12.20;8.20;;;11.90;99.90;;;;;;4997233;28;20033;-88
2024/03/13 09:44:29;;;;;;;11.05;7.07;;;11.90;99.90;;;;;;5026946;28;20048;-89
2024/03/13 09:46:58;;;;;;;11.35;7.22;;;12.00;99.90;;;;;;5044478;28;20523;-89
2024/03/13 09:49:26;;;;;;;12.77;7.78;;;12.00;99.90;;;;;;5045103;28;20627;-89
2024/03/13 09:51:53;;;;;;;12.38;7.97;;;12.10;99.90;;;;;;5009896;28;20033;-93
2024/03/13 09:54:20;;;;;;;11.30;7.20;;;12.20;99.90;;;;;;4995167;28;20326;-91
2024/03/13 09:56:47;;;;;;;13.45;8.80;;;12.30;99.90;;;;;;4997295;28;20041;-87
2024/03/13 09:59:13;;;;;;;12.00;6.78;;;12.30;99.90;;;;;;4992807;28;20095;-91
2024/03/13 10:01:47;;;;;;;10.20;6.82;;;12.40;99.90;;;;;;5012455;28;20029;-89
2024/03/13 10:04:22;;;;;;;11.15;7.47;;;12.40;99.90;;;;;;4996740;28;20041;-90
2024/03/13 10:06:53;;;;;;;12.70;7.60;;;12.40;99.90;;;;;;5014339;28;20042;-90
2024/03/13 10:09:23;;;;;;;10.05;7.30;;;12.40;99.90;;;;;;5013525;28;20042;-91
2024/03/13 10:11:51;;;;;;;13.60;8.00;;;12.40;99.90;;;;;;4998225;28;20040;-90
2024/03/13 10:14:21;;;;;;;16.67;9.98;;;12.40;99.90;;;;;;4995739;28;20041;-89
2024/03/13 10:16:52;;;;;;;20.88;11.65;;;12.40;99.90;;;;;;4999692;28;20052;-87
2024/03/13 10:19:27;;;;;;;17.38;10.70;;;12.30;99.90;;;;;;5000694;28;20044;-88
2024/03/13 10:21:54;;;;;;;16.33;10.23;;;12.40;99.90;;;;;;5013249;28;20036;-89
2024/03/13 10:24:22;;;;;;;22.65;12.77;;;12.40;99.90;;;;;;5012144;28;20044;-86
2024/03/13 10:26:50;;;;;;;24.05;14.48;;;12.40;99.90;;;;;;4997922;28;20056;-91
2024/03/13 10:29:17;;;;;;;22.77;14.80;;;12.40;99.90;;;;;;5015710;28;20397;-91
2024/03/13 10:31:44;;;;;;;28.45;16.52;;;12.40;99.90;;;;;;4996416;28;20041;-89
2024/03/13 10:34:11;;;;;;;28.95;17.33;;;12.30;99.90;;;;;;5016273;28;20037;-88
2024/03/13 10:36:44;;;;;;;34.97;19.15;;;12.30;99.90;;;;;;5002565;28;20469;-88
2024/03/13 10:39:12;;;;;;;37.70;18.63;;;12.20;99.90;;;;;;5000563;28;20033;-88
2024/03/13 10:41:44;;;;;;;32.40;18.38;;;12.20;99.90;;;;;;4998623;28;20492;-88
2024/03/13 10:44:11;;;;;;;34.35;20.30;;;12.20;99.90;;;;;;5002318;28;20397;-89
2024/03/13 10:46:37;;;;;;;35.10;20.70;;;12.20;99.90;;;;;;5021250;28;20051;-87
2024/03/13 10:49:15;;;;;;;39.13;21.80;;;12.20;99.90;;;;;;5021000;28;20034;-87
2024/03/13 10:51:42;;;;;;;34.95;20.52;;;12.20;99.90;;;;;;5018051;28;20045;-89
2024/03/13 10:54:12;;;;;;;35.15;19.92;;;12.20;99.90;;;;;;5001545;28;20352;-89
2024/03/13 10:56:38;;;;;;;36.42;20.10;;;12.30;99.90;;;;;;5003481;28;20384;-88
2024/03/13 10:59:05;;;;;;;34.05;19.40;;;12.30;99.90;;;;;;4986297;28;20042;-88
2024/03/13 11:01:31;;;;;;;36.50;19.25;;;12.30;99.90;;;;;;4998736;28;20033;-86
2024/03/13 11:04:01;;;;;;;34.92;19.95;;;12.30;99.90;;;;;;5000230;28;20044;-89
2024/03/13 11:06:28;;;;;;;36.65;21.23;;;12.30;99.90;;;;;;5000270;28;20045;-89
2024/03/13 11:09:00;;;;;;;40.70;21.60;;;12.40;99.90;;;;;;4983676;28;20052;-89
2024/03/13 11:11:27;;;;;;;38.25;21.30;;;12.50;99.90;;;;;;5016238;28;20034;-90
2024/03/13 11:13:56;;;;;;;34.95;20.70;;;12.60;99.90;;;;;;4997359;28;20380;-86
2024/03/13 11:16:23;;;;;;;30.58;19.55;;;12.70;99.90;;;;;;5017083;28;20052;-88
2024/03/13 11:18:56;;;;;;;29.50;18.30;;;12.70;99.90;;;;;;5021590;28;20042;-89
2024/03/13 11:21:22;;;;;;;37.22;20.40;;;12.80;99.90;;;;;;5020043;28;20036;-89
2024/03/13 11:24:02;;;;;;;32.47;21.63;;;12.90;99.90;;;;;;5019097;28;20053;-89
2024/03/13 11:26:40;;;;;;;30.67;19.67;;;13.00;99.90;;;;;;4990097;28;20036;-89
2024/03/13 11:29:13;;;;;;;36.92;20.48;;;13.00;99.90;;;;;;5003847;28;20033;-84
2024/03/13 11:31:41;;;;;;;31.73;21.05;;;12.90;99.90;;;;;;5017928;28;20040;-88
2024/03/13 11:34:09;;;;;;;29.88;20.08;;;12.90;99.90;;;;;;4980357;28;20488;-85
2024/03/13 11:36:36;;;;;;;30.23;19.80;;;12.80;99.90;;;;;;5015458;28;20032;-87
2024/03/13 11:39:07;;;;;;;29.48;18.50;;;12.80;99.90;;;;;;4987491;28;20476;-88
2024/03/13 11:41:33;;;;;;;29.35;19.45;;;12.70;99.90;;;;;;5016483;28;20064;-87
2024/03/13 11:44:00;;;;;;;26.08;17.27;;;12.80;99.90;;;;;;4984979;28;20500;-88
2024/03/13 11:46:48;;;;;;;24.92;17.98;;;12.90;99.90;;;;;;5014100;28;20503;-87
2024/03/13 11:49:15;;;;;;;28.52;18.65;;;13.00;99.90;;;;;;5000961;28;20047;-90
2024/03/13 11:52:03;;;;;;;28.75;17.63;;;13.10;99.90;;;;;;5016263;28;20587;-88
2024/03/13 11:54:30;;;;;;;28.20;17.17;;;13.00;99.90;;;;;;4980803;28;20044;-88
2024/03/13 11:57:03;;;;;;;28.90;19.10;;;13.00;99.90;;;;;;5015131;28;20060;-88
2024/03/13 11:59:43;;;;;;;;;;;12.90;99.90;;;;;;5002038;28;20033;-87
2024/03/13 12:02:28;;;;;;;24.20;16.75;;;12.80;99.90;;;;;;5029689;28;19913;-88
2024/03/13 12:05:10;;;;;;;26.58;18.23;;;12.80;99.90;;;;;;5010097;28;20448;-88
2024/03/13 12:07:42;;;;;;;32.08;19.27;;;12.70;99.90;;;;;;5013372;28;20064;-86
2024/03/13 12:10:19;;;;;;;25.75;17.85;;;12.80;99.90;;;;;;4999784;28;20041;-88
2024/03/13 12:12:46;;;;;;;26.05;20.40;;;12.80;99.90;;;;;;5011771;28;20033;-86
2024/03/13 12:15:18;;;;;;;28.15;20.20;;;12.80;99.90;;;;;;4995924;28;20041;-87
2024/03/13 12:17:49;;;;;;;29.52;18.83;;;12.90;99.90;;;;;;5013109;28;20034;-87
2024/03/13 12:20:21;;;;;;;24.80;18.83;;;12.90;99.90;;;;;;5030324;28;20056;-86
2024/03/13 12:22:49;;;;;;;27.75;21.33;;;13.00;99.90;;;;;;4980825;28;20405;-87
2024/03/13 12:25:17;;;;;;;28.67;21.92;;;13.10;99.90;;;;;;5009738;28;20076;-86
2024/03/13 12:27:52;;;;;;;34.28;23.05;;;13.00;99.90;;;;;;4999834;28;20072;-88
2024/03/13 12:30:19;;;;;;;27.98;22.35;;;13.00;99.90;;;;;;4996112;28;20063;-86
2024/03/13 12:32:46;;;;;;;29.83;23.00;;;13.00;99.90;;;;;;5000767;28;20033;-87
2024/03/13 12:35:13;;;;;;;30.75;23.75;;;13.10;99.90;;;;;;5005421;28;20040;-87
2024/03/13 12:37:39;;;;;;;29.65;22.50;;;13.10;99.90;;;;;;4996453;28;20038;-88
2024/03/13 12:40:12;;;;;;;28.40;20.33;;;13.20;99.90;;;;;;4997716;28;20029;-86
2024/03/13 12:42:42;;;;;;;29.67;21.27;;;13.20;99.90;;;;;;4996213;28;20056;-86
2024/03/13 12:45:11;;;;;;;29.30;22.45;;;13.20;99.90;;;;;;4995582;28;20046;-86
2024/03/13 12:47:44;;;;;;;33.25;25.13;;;13.20;99.90;;;;;;5000581;28;20465;-87
2024/03/13 12:50:12;;;;;;;30.50;23.48;;;13.20;99.90;;;;;;5012956;28;20049;-88
2024/03/13 12:52:39;;;;;;;30.08;22.35;;;13.30;99.90;;;;;;4980113;28;20036;-87
2024/03/13 12:55:10;;;;;;;29.88;21.38;;;13.20;99.90;;;;;;5014134;28;20041;-87
2024/03/13 12:57:37;;;;;;;38.38;26.20;;;13.20;99.90;;;;;;5012169;28;20040;-87